Startpagina
METAR-TAF:

METAR-TAF

Vliegvelden :

Tokio-Haneda, Japan

Luchthaven Haneda

breedte: 35-33N, lengte: 139-47E, hoogte: 5 m

Actueel weer

Dit bericht is 41 minuten geleden gemaakt, om 06:30 UTC
Wind 17 kt uit het zuiden
Temperatuur 26°C
Vochtigheid 65%
Druk 1007 hPa
Zicht 10 km of meer
geen wolken onder 1500 m en geen cumulonimbus

METAR: RJTT 300630Z 18017KT CAVOK 26/19 Q1007 NOSIG RMK A2976

Tijdstip: 16:11 (07:11 UTC)

Verwachting

Dit bericht is 2 uur en het 5 minuten geleden gemaakt, om 05:06 UTC
Verwachting geldig van 30 om 06 UTC tot 31 om 12 UTC
Wind 18 kt uit het zuiden
Zicht 10 km of meer
Weinig wolken op 2500 ft
Wijzigt naar
van 30 om 16 UTC tot 30 om 18 UTC
Wind 8 kt uit het zuidzuidwesten
Wijzigt naar
van 31 om 00 UTC tot 31 om 03 UTC
Wind 20 kt uit het zuiden

TAF: RJTT 300506Z 3006/3112 18018KT 9999 FEW025 BECMG 3016/3018 21008KT BECMG 3100/3103 18020KT

Waarnemingen en weersverwachtingen van meer dan 4000 vliegvelden (METAR en TAF).

De beschikbare stations zijn de gele en rode punten op de kaart.

Ga met uw muis naar het station om de naam te zien.

Klik dan om waarnemingen en weersverwachtingen te zien.

kaart wijzigen: klik op de groene knoppen met een zwart kruis om in te zoomen, op de groene knop met een streepje om uit te zoomen of op de groene pijlen voor aangrenzende kaarten.


METAR-TAF: